Airfield :
LOGIN :

Register | Disclaimer

   EN    FR    IT 

 










Legend :    VFR   Marginal VFR   IFR   Intensive IFR   Very Intensive IFR
Visi :
Ceiling :
>= 8 km
>= 3000ft
5 to 8 km
1000 to 3000 ft
1500m to 5 km
500 to 1000 ft
800 to 1500m
200 to 500 ft
< 800m
< 200 ft
Symbols :   Thunderstorms  Fog  Heavy snow  Heavy precipitations  Wind > 20 kt
SIGMETs :     Misc.  Thunderstorms  Icing  Turbulence  Mountain Waves  Volcanic Ashes







- Airport Elevation : 245 ft
- IATA code : BIQ
- Download approach charts


LFBZ - Biarritz

CURRENT METAR :
  • 220030Z AUTO 28008KT CAVOK 14/10 Q1028 TEMPO 29015G25KT 3000 SHRA SCT014 BKN030TCU

EXPIRED METARs :
  • 220000Z AUTO 29010KT 9999 FEW021/// BKN062/// BKN072/// ///TCU 14/10 Q1028 TEMPO 29015G25KT 3000 SHRA
  • 212330Z AUTO 22004KT 200V270 9999 BKN038 BKN046 BKN054 16/09 Q1027 TEMPO 29015G25KT 3000 SHRA SCT014 BKN030TCU
  • 212300Z AUTO 22004KT 170V290 9999 FEW017 BKN032 BKN039 13/11 Q1028 TEMPO 29018G30KT 3000 SHRA BKN014 BKN030TCU
  • 212230Z AUTO 23004KT 180V280 9999 BKN039 BKN048 BKN054 14/11 Q1028 TEMPO 29018G30KT 3000 SHRA BKN014 BKN030TCU
  • 212200Z AUTO 24004KT 190V300 9999 BKN041/// BKN052/// OVC064/// ///TCU 15/10 Q1027 TEMPO 29018G30KT 3000 SHRA BKN014 BKN030TCU

TAF TAF LFBZ
Valid from the 22 at 00:00 until the 23 at 00:00 UTC


212300Z 2200/2224 24006KT 9999 BKN040
TEMPO 2200/2212 3000 SHRA SCT014 BKN030TCU
PROB40
TEMPO 2200/2216 29015G25KT
BECMG 2214/2216 32008KT
BECMG 2219/2221 18004KT
No reported NOTAMs for that airfield.



MET'MAP, your aeronautical weather chart ! - Copyright ORBIFLY December 2007 - Disclaimer

ORBIFLY MET'MAP TEAM :

Programming & Development : Alexandra Zaïnal
Concept & Development : Baudouin d'Aumeries
Co-Development & Prog : Marc-Olivier Méhu
Technical & hardware support : Manuel Goepfert

Contact : metmap@orbifly.com




SOURCES & CREDITS :

   NOAA